Tiempo atmosférico en la estación meteorológica de Bilbao Aeropuerto, Bizkaia (42 m.)



Fecha
DESCASC
Temp. máxima en grados centígrados (hora)
DESCASC
Temp. mínima en grados centígrados (hora)
DESCASC
Temp. media en grados centígrados
DESCASC
Racha de viento máxima en m/sg (hora)
DESCASC
Velocidad máxima media en intervalos de 10 minutos(hora)
DESCASC
Precipitaciones diarias en mm
DESCASC
Precipitaciones de 00:00 a 06:00 en mm
DESCASC
Precipitaciones de 06:00 a 12:00 en mm
DESCASC
Precipitaciones de 12:00 a 18:00 en mm
DESCASC
Precipitaciones de 18:00 a 24:00 en mm
DESCASC
18-10-2018 17.4 (17:30) 14.2 (05:50) 15.8 7.22 (23:50) 4.44 (23:59) 1.1 0 0 1.1 0
17-10-2018 22.6 (15:20) 10.4 (03:50) 16.5 10.28 (17:20) 5.28 (17:20) 0 0 0 0 0
16-10-2018 20.7 (15:40) 11.1 (03:50) 15.9 6.11 (18:00) 3.89 (14:00) 0 0 0 0 0
15-10-2018 22.6 (16:40) 9.8 (07:10) 16.2 10.28 (17:50) 4.72 (11:20) 0 0 0 0 0
14-10-2018 25.8 (00:10) 11.9 (00:00) 18.8 15.28 (03:20) 10.28 (01:50) 30.6 0 21.4 9.2 0
13-10-2018 30 (17:50) 21.3 (00:00) 25.6 16.11 (23:40) 9.17 (23:59) 0 0 0 0 0
12-10-2018 29.4 (17:30) 15 (00:00) 22.2 14.44 (11:20) 8.06 (13:20) 0 0 0 0 0
11-10-2018 27 (15:50) 15.2 (23:10) 21.1 17.5 (16:00) 10.83 (16:00) 0 0 0 0 0
10-10-2018 25.7 (15:20) 13 (00:00) 19.4 12.5 (16:50) 8.61 (16:50) 0 0 0 0 0
09-10-2018 24 (16:30) 10.6 (07:40) 17.3 9.72 (17:30) 5.83 (17:30) 0 0 0 0 0
08-10-2018 18.1 (16:00) 13.3 (06:40) 15.7 9.72 (01:40) 6.39 (00:10) 7.3 6.5 0.7 0 0.1
07-10-2018 16.3 (11:50) 11.4 (08:10) 13.8 13.89 (12:50) 9.44 (12:50) 32.6 6.6 5.9 7.2 12.9
06-10-2018 22.5 (15:20) 9.6 (08:30) 16.1 18.89 (15:50) 12.78 (16:00) 0.7 0 0 0.5 0.2
05-10-2018 29.7 (14:40) 11.3 (05:40) 20.5 8.33 (15:40) 6.11 (15:50) 0 0 0 0 0
04-10-2018 26.3 (15:40) 9.4 (00:00) 17.8 6.67 (16:50) 4.44 (16:20) 0 0 0 0 0
03-10-2018 23.1 (16:10) 7.9 (00:00) 15.5 9.72 (18:10) 5 (16:30) 0 0 0 0 0
02-10-2018 19.7 (14:20) 7.7 (00:00) 13.7 8.89 (15:40) 5 (16:00) 0 0 0 0 0
01-10-2018 19.3 (14:50) 14.9 (00:00) 17.1 9.72 (12:30) 6.94 (15:50) 0 0 0 0 0
30-09-2018 22.8 (14:30) 13.9 (00:00) 18.3 7.78 (18:50) 5 (18:50) 0 0 0 0 0
29-09-2018 25.1 (14:20) 14.5 (00:00) 19.8 7.22 (17:20) 5.28 (17:30) 0 0 0 0 0
28-09-2018 25.8 (15:40) 14.8 (00:00) 20.3 7.22 (14:30) 5 (16:20) 0 0 0 0 0
27-09-2018 32.6 (15:10) 18.4 (00:00) 25.5 11.39 (15:50) 7.78 (16:00) 0 0 0 0 0
26-09-2018 31.1 (17:10) 9.4 (00:00) 20.3 12.5 (12:10) 7.22 (14:00) 0 0 0 0 0
25-09-2018 20.2 (13:10) 8.5 (00:00) 14.4 7.78 (16:50) 4.44 (15:10) 0 0 0 0 0
24-09-2018 19.8 (01:00) 10.7 (00:00) 15.2 8.89 (02:10) 5 (14:20) 5.1 4.4 0.7 0 0
23-09-2018 25.1 (14:30) 15.5 (07:40) 20.3 11.39 (15:10) 7.22 (15:10) 1.5 0 0 0 1.5
22-09-2018 30.3 (15:40) 16.4 (06:40) 23.3 8.89 (16:10) 6.39 (16:10) 0 0 0 0 0
21-09-2018 24.6 (12:50) 16.2 (04:40) 20.4 9.17 (15:30) 6.39 (15:50) 0.2 0 0 0 0.2
20-09-2018 29.2 (13:40) 18.8 (00:20) 24 9.72 (16:40) 7.22 (17:10) 0 0 0 0 0

Gráficas

Temp. máximas Temp. mínimas Temp. medias Precipitaciones Rachas de viento máximas Velocidades máximas media en intervalos de 10 minutos

Datos horarios

Fecha y hora oficial Temperatura (ºC) Velocidad del viento (km/h) Dirección del viento Racha (km/h) Dirección de racha Precipitación (mm) Presión (hPa) Tendencia (hPa) Humedad (%)
2018-10-19 23:00:00 16.6 8 Noroeste 15 Noroeste 0 1018.2 1.8 97
2018-10-19 22:00:00 16.6 10 Noroeste 17 Norte 0 1017.6 2.1 96
2018-10-19 21:00:00 16.7 7 Norte 11 Noroeste 0 1017 1.7 98
2018-10-19 20:00:00 17 7 Oeste 11 Noroeste 0 1016.4 1.3 97
2018-10-19 19:00:00 17.6 9 Noroeste 21 Noroeste 0 1015.5 0.7 90
2018-10-19 18:00:00 18.8 12 Noroeste 24 Noroeste 0 1015.3 0.5 85
2018-10-19 17:00:00 19.1 15 Noroeste 26 Noroeste 0 1015.1 -0.3 87
2018-10-19 16:00:00 19.2 17 Noroeste 24 Noroeste 0 1014.8 -0.8 83
2018-10-19 15:00:00 20 15 Noroeste 24 Noroeste 0 1014.8 -0.1 86
2018-10-19 14:00:00 18.6 17 Norte 26 Norte 0 1015.4 0.4 89
2018-10-19 13:00:00 18.9 15 Norte 24 Norte 0 1015.6 1.3 88
2018-10-19 12:00:00 19.3 10 Norte 18 Norte 0 1014.9 1.4 90
2018-10-19 11:00:00 17.9 13 Noroeste 18 Norte 0 1015 2 95
2018-10-19 10:00:00 17.5 14 Noroeste 21 Norte 0 1014.3 1 95
2018-10-19 09:00:00 17.2 9 Norte 18 Norte 0 1013.5 0.3 95
2018-10-19 08:00:00 17.1 14 Norte 21 Norte 0 1013 -0.3 95
2018-10-19 07:00:00 17.2 12 Norte 24 Noroeste 0 1013.3 0.1 95
2018-10-19 06:00:00 16.9 13 Norte 24 Noroeste 0 1013.2 0.1 96
2018-10-19 05:00:00 16.8 11 Norte 17 Norte 0 1013.3 0.2 97
2018-10-19 04:00:00 16.8 10 Norte 18 Noroeste 0 1013.2 0.2 97
2018-10-19 03:00:00 16.8 12 Noroeste 22 Noroeste 0 1013.1 0.1 97
2018-10-19 02:00:00 16.9 17 Noroeste 26 Noroeste 0 1013.1 0.3 96
2018-10-19 01:00:00 16.8 17 Noroeste 28 Noroeste 0 1013 0.4 97
2018-10-19 00:00:00 16.9 16 Noroeste 26 Noroeste 0 1013 0.6 98
2018-10-18 23:00:00 17 11 Noroeste 22 Noroeste 0 1012.8 0.6 98
2018-10-18 22:00:00 17.2 14 Noroeste 21 Norte 0 1012.6 1.2 98
2018-10-18 21:00:00 17.1 13 Noroeste 21 Noroeste 0 1012.4 1 100
2018-10-18 20:00:00 17.2 12 Noroeste 18 Noroeste 0 1012.2 0.8 100
2018-10-18 19:00:00 17.3 11 Noroeste 17 Noroeste 0 1011.4 0 100
2018-10-18 18:00:00 17.3 12 Noroeste 18 Oeste 0 1011.4 0 100
2018-10-18 17:00:00 17.3 6 Noroeste 11 Oeste 0 1011.4 -0.4 100
2018-10-18 16:00:00 16.7 5 Oeste 18 Noroeste 0.9 1011.4 -0.7 100
2018-10-18 15:00:00 16.9 11 Noroeste 17 Noroeste 0.2 1011.4 -0.7 100
2018-10-18 14:00:00 17 11 Oeste 17 Noroeste 0 1011.8 -0.2 99
2018-10-18 13:00:00 17 9 Noroeste 15 Noroeste 0 1012.1 0.2 100
2018-10-18 12:00:00 17 9 Noroeste 15 Noroeste 0 1012.1 0.6 99
2018-10-18 11:00:00 16.7 7 Oeste 15 Noroeste 0 1012 1.1 100
2018-10-18 10:00:00 15.9 5 Oeste 9 Noroeste 0 1011.9 1.2 100
2018-10-18 09:00:00 15.3 0 Calma 5 Noroeste 0 1011.5 1 100
2018-10-18 08:00:00 14.9 0 Calma 5 Oeste 0 1010.9 0.6 100
2018-10-18 07:00:00 14.7 4 Noroeste 5 Noroeste 0 1010.7 0.1 100
2018-10-18 06:00:00 14.2 0 Calma -- -- 0 1010.5 -0.3 100
2018-10-18 05:00:00 14.7 0 Calma 5 Nordeste 0 1010.3 -0.7 99
2018-10-18 04:00:00 14.5 0 Calma 9 Noroeste 0 1010.6 -0.6 99
2018-10-18 03:00:00 15.3 6 Este -- -- -- 1010.8 -0.4 97
2018-10-18 02:00:00 15.8 6 Sudeste 9 Sudeste 0 1011 0 96
2018-10-18 01:00:00 15.6 4 Oeste 9 Noroeste 0 1011.2 0.4 96
2018-10-18 00:00:00 15.8 0 Calma 8 Oeste 0 1011.2 0.7 93
2018-10-17 23:00:00 16.2 0 Calma 9 Norte 0 1011 1.2 92
2018-10-17 22:00:00 16 2 Oeste 9 Sudeste 0 1010.8 1.9 90
2018-10-17 21:00:00 16 6 Sudeste 15 Este 0 1010.5 1.9 89
2018-10-17 20:00:00 16.6 10 Este 32 Este 0 1009.8 0.8 85
2018-10-17 19:00:00 18.2 14 Este 32 Este 0 1008.9 -0.3 78
2018-10-17 18:00:00 20.1 13 Este 37 Nordeste 0 1008.6 -1.4 71
2018-10-17 17:00:00 20.4 19 Nordeste 33 Nordeste 0 1009 -2.1 68
2018-10-17 16:00:00 22.1 10 Nordeste 24 Este 0 1009.2 -2.9 61
2018-10-17 15:00:00 22.3 7 Este 22 Este 0 1010 -2.8 56
2018-10-17 14:00:00 21 8 Este 26 Este 0 1011.1 -2.4 60
2018-10-17 13:00:00 20.2 9 Sudeste 17 Sudeste 0 1012.1 -1.8 64
2018-10-17 12:00:00 18.3 9 Sudeste 15 Sudeste 0 1012.8 -1.1 74
2018-10-17 11:00:00 15.6 7 Este 13 Este 0 1013.5 -0.4 86
2018-10-17 10:00:00 13.2 9 Sudeste 18 Sudeste 0 1013.9 -0.2 97
2018-10-17 09:00:00 11.2 6 Este 11 Este 0 1013.9 -0.1 100
2018-10-17 08:00:00 10.8 8 Este 11 Sudeste 0 1013.9 -0.4 100
2018-10-17 07:00:00 10.9 5 Sudeste 8 Este 0 1014.1 -0.7 100
2018-10-17 06:00:00 10.7 6 Este 9 Este 0 1014 -1.2 100
2018-10-17 05:00:00 11 6 Este 9 Este 0 1014.3 -0.9 100
2018-10-17 04:00:00 10.7 5 Sudeste 9 Este 0 1014.8 -0.7 100
2018-10-17 03:00:00 10.8 6 Sudeste -- -- -- 1015.2 -0.5 100
2018-10-17 02:00:00 11.3 8 Este 9 Este 0 1015.2 -0.5 100
2018-10-17 01:00:00 12.1 4 Este 5 Sudeste 0 1015.5 0.1 99
2018-10-17 00:00:00 12.7 0 Calma 5 Este 0 1015.7 0.6 98
2018-10-16 23:00:00 13.5 2 Este 13 Este 0 1015.7 0.8 95
2018-10-16 22:00:00 14.3 4 Sudeste 8 Sudeste 0 1015.4 1.1 94
2018-10-16 21:00:00 16 0 Calma 8 Sur 0 1015.1 1.4 89
2018-10-16 20:00:00 17 5 Nordeste 15 Nordeste 0 1014.9 1.6 80
2018-10-16 19:00:00 18 6 Este 18 Este 0 1014.3 1 79
2018-10-16 18:00:00 18.5 10 Nordeste 22 Nordeste 0 1013.7 0.4 79
2018-10-16 17:00:00 20 10 Nordeste 21 Norte 0 1013.3 -0.2 73
2018-10-16 16:00:00 20.6 8 Norte 15 Norte 0 1013.3 -0.1 65
2018-10-16 15:00:00 20.2 8 Norte 18 Norte 0 1013.3 0.1 71
2018-10-16 14:00:00 19.2 14 Norte 18 Norte 0 1013.5 0.6 72
2018-10-16 13:00:00 19.3 5 Norte 13 Oeste 0 1013.4 1 69
2018-10-16 12:00:00 17.2 4 Este 11 Este 0 1013.2 1.4 80
2018-10-16 11:00:00 15.9 5 Este 13 Este 0 1012.9 1.7 85
2018-10-16 10:00:00 13.6 8 Sudeste 13 Este 0 1012.4 1.8 95
2018-10-16 09:00:00 12.9 10 Este 17 Este 0 1011.8 1.4 96
2018-10-16 08:00:00 12.5 3 Sudeste 15 Nordeste 0 1011.2 1.5 99
2018-10-16 07:00:00 12.1 5 Este 11 Este 0 1010.6 1.4 100
2018-10-16 06:00:00 11.7 6 Este 11 Sudeste 0 1010.4 1.6 100
2018-10-16 05:00:00 11.8 5 Sudeste 8 Sudeste 0 1009.7 1.3 100
2018-10-16 04:00:00 11.3 2 Este 9 Este 0 1009.2 1.2 100
2018-10-16 03:00:00 11.6 6 Este -- -- -- 1008.8 1.1 100
2018-10-16 02:00:00 12.3 3 Nordeste 9 Nordeste 0 1008.4 1.1 98
2018-10-16 01:00:00 12.5 7 Este 9 Este 0 1008 1.3 98
2018-10-16 00:00:00 12.9 6 Sudeste 9 Este 0 1007.7 1.7 97
2018-10-15 23:00:00 14.2 0 Calma 11 Este 0 1007.3 2.5 93
2018-10-15 22:00:00 15.5 6 Sudeste 17 Sudeste 0 1006.7 3.1 86
2018-10-15 21:00:00 15.8 12 Sudeste 22 Sudeste 0 1006 3.1 83
2018-10-15 20:00:00 17.1 9 Sudeste 22 Este 0 1004.8 2.4 73
2018-10-15 19:00:00 18.8 11 Este 24 Este 0 1003.6 1.3 64
2018-10-15 18:00:00 20.8 16 Este 37 Este 0 1002.9 0.2 54
2018-10-15 17:00:00 22.2 8 Este 21 Este 0 1002.4 -0.5 39
2018-10-15 16:00:00 21.9 7 Este 17 Nordeste 0 1002.3 -0.5 38
2018-10-15 15:00:00 21.9 9 Este 18 Sudeste 0 1002.7 -0.1 40
2018-10-15 14:00:00 20.9 9 Sur 22 Sudeste 0 1002.9 -0.1 43
2018-10-15 13:00:00 19.6 10 Sur 24 Sudeste 0 1002.8 -0.3 53
2018-10-15 12:00:00 16.7 11 Sudeste 24 Este 0 1002.8 -0.8 69
2018-10-15 11:00:00 14.6 13 Sudeste 22 Este 0 1003 -0.8 81
2018-10-15 10:00:00 13.2 13 Sudeste 22 Este 0 1003.1 -1 90
2018-10-15 09:00:00 10.8 9 Sudeste 18 Sudeste 0 1003.6 -0.7 99
2018-10-15 08:00:00 10.2 9 Este 26 Este 0 1003.8 -0.6 100
2018-10-15 07:00:00 9.9 6 Sudeste 15 Este 0 1004.1 -0.8 100
2018-10-15 06:00:00 10.1 8 Sudeste 13 Sudeste 0 1004.3 -1.4 100
2018-10-15 05:00:00 10.9 5 Este 11 Sudeste 0 1004.4 -1.5 100
2018-10-15 04:00:00 11.7 5 Este 8 Este 0 1004.9 -1.4 98
2018-10-15 03:00:00 12.4 7 Sudeste -- -- -- 1005.7 -0.8 97
2018-10-15 02:00:00 12.4 7 Sudeste 11 Este 0 1005.9 -0.3 97
2018-10-15 01:00:00 12.5 6 Este 11 Sudeste 0 1006.3 0.4 96
2018-10-15 00:00:00 12.2 3 Este 15 Este 0 1006.5 0.5 96
2018-10-14 23:00:00 11.9 6 Este 13 Sudeste 0 1006.2 0.4 97
2018-10-14 22:00:00 12.4 7 Este 15 Sudeste 0 1005.9 0.4 95
2018-10-14 21:00:00 13.1 0 Calma 8 Este 0 1006 0.6 92
2018-10-14 20:00:00 14.2 5 Oeste 11 Oeste 0 1005.8 0.7 78
2018-10-14 19:00:00 14.2 6 Sudoeste 18 Noroeste 0 1005.5 0.7 86
2018-10-14 18:00:00 14.7 16 Noroeste 28 Norte 0 1005.4 0.2 83
2018-10-14 17:00:00 14.5 14 Noroeste 26 Noroeste 0 1005.1 0.6 89
2018-10-14 16:00:00 14.9 19 Noroeste 26 Noroeste 0.1 1004.8 0.7 91
2018-10-14 15:00:00 14.4 10 Noroeste 21 Noroeste 0.4 1005.2 1.8 94
2018-10-14 14:00:00 13.7 13 Noroeste 28 Noroeste 2.3 1004.5 2.3 97
2018-10-14 13:00:00 13.5 15 Oeste 33 Noroeste 6.4 1004.1 3.4 97
2018-10-14 12:00:00 13.8 21 Noroeste 33 Noroeste 7.8 1003.4 4.5 98
2018-10-14 11:00:00 14.2 17 Noroeste 46 Noroeste 13.5 1002.2 4.3 98
2018-10-14 10:00:00 16.1 21 Noroeste 37 Norte 0.1 1000.7 3.6 92
2018-10-14 09:00:00 16.3 11 Oeste 28 Oeste 0 998.9 1.2 94
2018-10-14 08:00:00 16.1 17 Oeste 28 Oeste 0 997.9 -0.7 96
2018-10-14 07:00:00 19.2 9 Oeste 45 Sur 0 997.1 -2.1 78
2018-10-14 06:00:00 17.7 7 Oeste 18 Oeste 0 997.7 -1.2 87
2018-10-14 05:00:00 18.6 12 Oeste 26 Oeste 0 998.6 -1.2 81
2018-10-14 04:00:00 23.2 19 Sudeste 55 Sudeste 0 999.2 -1.7 61
2018-10-14 03:00:00 23.8 34 Sudeste -- -- -- 998.9 -2.2 60
2018-10-14 02:00:00 24.6 32 Sudeste 54 Sudeste 0 999.8 -2.2 58
2018-10-14 01:00:00 25.1 30 Sudeste 54 Sur 0 1000.9 -2.5 56
2018-10-14 00:00:00 25.6 33 Sur 58 Sur 0 1001.1 -3.1 54
2018-10-13 23:00:00 25.4 30 Sudeste 41 Sudeste 0 1002 -2.4 55
2018-10-13 22:00:00 24.6 18 Sudeste 26 Sudeste 0 1003.4 -0.9 57
2018-10-13 21:00:00 24.8 16 Sudeste 24 Sur 0 1004.2 -0.7 56
2018-10-13 20:00:00 26.8 14 Sur 24 Sudeste 0 1004.4 -1.5 47
2018-10-13 19:00:00 28.4 12 Sudeste 28 Sur 0 1004.3 -2.2 42
2018-10-13 18:00:00 29.8 14 Sur 32 Sur 0 1004.9 -2.5 38
2018-10-13 17:00:00 28.6 14 Sur 32 Sur 0 1005.9 -2.7 42
2018-10-13 16:00:00 28.5 16 Sur 35 Sur 0 1006.5 -2.8 42
2018-10-13 15:00:00 27.8 19 Sur 33 Sur 0 1007.4 -2.7 44
2018-10-13 14:00:00 28 13 Sur 32 Sudoeste 0 1008.6 -1.7 43
2018-10-13 13:00:00 26.5 15 Sur 39 Sur 0 1009.3 -1 45
2018-10-13 12:00:00 26 22 Sur 39 Sur 0 1010.1 0.3 46
2018-10-13 11:00:00 24.7 21 Sudeste 37 Sudeste 0 1010.3 0.5 48
2018-10-13 10:00:00 23.5 16 Sur 42 Sur 0 1010.3 0.6 49
2018-10-13 09:00:00 23 17 Sur 41 Sur 0 1009.8 0 49
2018-10-13 08:00:00 23.4 19 Sur 41 Sur 0 1009.8 -0.5 46
2018-10-13 07:00:00 23.4 23 Sur 39 Sur 0 1009.7 -1.1 46
2018-10-13 06:00:00 24.2 20 Sur 42 Sudoeste 0 1009.8 -1.6 43
2018-10-13 05:00:00 24.3 13 Sur 32 Sur 0 1010.3 -1.5 40
2018-10-13 04:00:00 24.2 19 Sur 35 Sur 0 1010.8 -1.4 40
2018-10-13 03:00:00 24.1 20 Sur -- -- -- 1011.4 -1.2 39
2018-10-13 02:00:00 23.9 16 Sur 30 Sur 0 1011.8 -1.1 40
2018-10-13 01:00:00 21.8 7 Sudeste 17 Sur 0 1012.2 -0.7 48
2018-10-13 00:00:00 22.9 9 Este 22 Sur 0 1012.6 -0.6 45
2018-10-12 23:00:00 24.4 8 Sur 26 Sur 0 1012.9 -0.1 38
2018-10-12 22:00:00 24.3 9 Sur 21 Sudeste 0 1012.9 0.3 38
2018-10-12 21:00:00 24.9 9 Sur 21 Sur 0 1013.2 0.9 37
2018-10-12 20:00:00 25.3 11 Sur 21 Sur 0 1013 0.5 37
2018-10-12 19:00:00 27.6 17 Sur 28 Sudoeste 0 1012.6 0 32
2018-10-12 18:00:00 28.8 16 Sudoeste 39 Sudoeste 0 1012.3 -0.1 30
2018-10-12 17:00:00 29.2 10 Sudoeste 32 Sudoeste 0 1012.5 -0.1 30
2018-10-12 16:00:00 28.5 27 Sudoeste 46 Sudoeste 0 1012.6 0.1 29
2018-10-12 15:00:00 27.9 15 Sudoeste 46 Sur 0 1012.4 -0.3 34
2018-10-12 14:00:00 27.3 21 Sudoeste 52 Sur 0 1012.6 0.1 35
2018-10-12 13:00:00 25.8 25 Sur 52 Sur 0 1012.5 0.6 40
2018-10-12 12:00:00 24.8 24 Sur 52 Sur 0 1012.7 1.6 43
2018-10-12 11:00:00 24.6 18 Sur 46 Sur 0 1012.5 2.1 44
2018-10-12 10:00:00 22.6 13 Sur 45 Oeste 0 1011.9 2 51
2018-10-12 09:00:00 22.5 14 Sur 42 Sudoeste 0 1011.1 1.6 48
2018-10-12 08:00:00 21.9 9 Sur 42 Sudoeste 0 1010.4 1.5 49
2018-10-12 07:00:00 22.6 15 Sur 35 Sur 0 1009.9 1.1 46
2018-10-12 06:00:00 23.1 9 Sur 37 Sudoeste 0 1009.5 0.7 45
2018-10-12 05:00:00 22.9 16 Sudoeste 46 Sudoeste 0 1008.9 0.5 52
2018-10-12 04:00:00 20.2 10 Sur 22 Sur 0 1008.8 0.1 68
2018-10-12 03:00:00 16.9 7 Nordeste -- -- -- 1008.8 -0.1 91
2018-10-12 02:00:00 15.8 12 Sudeste 24 Sudeste 0 1008.4 -0.2 98
2018-10-12 01:00:00 15.3 7 Este 17 Este 0 1008.7 0.4 100
2018-10-12 00:00:00 15.4 3 Sur 15 Sudeste 0 1008.9 0.7 100
2018-10-11 23:00:00 15.5 10 Sudeste 15 Sudeste 0 1008.6 0.4 100
2018-10-11 22:00:00 16.3 8 Este 13 Este 0 1008.3 0.6 98
2018-10-11 21:00:00 17.2 7 Este 13 Nordeste 0 1008.2 1.1 97
2018-10-11 20:00:00 17.8 3 Este 11 Sudeste 0 1008.2 1.6 93
2018-10-11 19:00:00 18.5 4 Este 17 Norte 0 1007.7 2.5 85
2018-10-11 18:00:00 18.9 7 Norte 22 Noroeste 0 1007.1 3.6 84
2018-10-11 17:00:00 19 17 Noroeste 50 Noroeste 0 1006.6 3.2 84
2018-10-11 16:00:00 22 39 Noroeste 63 Norte 0 1005.2 2 67
2018-10-11 15:00:00 24.7 13 Sur 33 Sur 0 1003.5 0.6 53
2018-10-11 14:00:00 23.5 14 Sur 37 Sur 0 1003.4 0.6 57
2018-10-11 13:00:00 23.8 18 Sur 46 Sur 0 1003.2 0.6 54
2018-10-11 12:00:00 22.3 20 Sudeste 35 Sudeste 0 1002.9 1.5 58
2018-10-11 11:00:00 21.9 16 Sur 32 Sur 0 1002.8 1.6 54
2018-10-11 10:00:00 20.3 14 Sudeste 33 Sudeste 0 1002.6 1.5 59
2018-10-11 09:00:00 20.1 22 Sudeste 33 Sudeste 0 1001.4 1 58
2018-10-11 08:00:00 20.4 18 Sudeste 30 Sur 0 1001.2 1.2 57
2018-10-11 07:00:00 19.8 19 Sudeste 30 Sudeste 0 1001.1 1.2 60
2018-10-11 06:00:00 19.6 18 Sudeste 33 Sudeste 0 1000.4 0.3 59
2018-10-11 05:00:00 19.9 26 Sudeste 42 Sudeste 0 1000 -0.2 56
2018-10-11 04:00:00 20.2 22 Sudeste 45 Sudeste 0 999.9 -0.7 51
2018-10-11 03:00:00 20.8 15 Sudeste -- -- -- 1000.1 -0.3 48
2018-10-11 02:00:00 20.3 24 Sudeste 33 Sudeste 0 1000.2 -0.1 50
2018-10-11 01:00:00 20.2 19 Sudeste 42 Sur 0 1000.6 0 53
2018-10-11 00:00:00 19.9 25 Sudeste 41 Sudeste 0 1000.4 0 56
2018-10-10 23:00:00 19 18 Sudeste 28 Sur 0 1000.3 0.2 60
2018-10-10 22:00:00 18.6 10 Nordeste 18 Nordeste 0 1000.6 0.8 63
2018-10-10 21:00:00 19.4 6 Sudeste 22 Sur 0 1000.4 0.6 61
2018-10-10 20:00:00 19.6 14 Sudeste 37 Sur 0 1000.1 0.3 62
2018-10-10 19:00:00 20.9 23 Sudeste 41 Sudeste 0 999.8 0.5 54
2018-10-10 18:00:00 23.1 21 Sudeste 33 Sudeste 0 999.8 0.3 44
2018-10-10 17:00:00 22.6 23 Sur 45 Sudeste 0 999.8 -0.3 45
2018-10-10 16:00:00 25.3 13 Sur 39 Sur 0 999.3 -1.2 37
2018-10-10 15:00:00 24.9 17 Sur 35 Sudoeste 0 999.5 -1.4 38
2018-10-10 14:00:00 24 19 Sur 41 Sudoeste 0 1000.1 -1.4 40
2018-10-10 13:00:00 23 19 Sur 39 Sudeste 0 1000.5 -1.3 43
2018-10-10 12:00:00 21.6 21 Sur 39 Sur 0 1000.9 -1.1 51
2018-10-10 11:00:00 20.2 17 Sur 30 Sur 0 1001.5 -0.4 58
2018-10-10 10:00:00 18.7 9 Sur 30 Sudeste 0 1001.8 -0.7 64
2018-10-10 09:00:00 17.3 15 Sur 33 Sur 0 1002 -1.2 67
2018-10-10 08:00:00 17.1 24 Sur 39 Sudeste 0 1001.9 -2.1 68
2018-10-10 07:00:00 14.9 4 Sudeste 17 Este 0 1002.5 -2.2 79
2018-10-10 06:00:00 15.3 12 Este 18 Este 0 1003.2 -2.3 77
2018-10-10 05:00:00 14.8 9 Este 13 Este 0 1004 -1.7 83
2018-10-10 04:00:00 15 10 Este 15 Este 0 1004.7 -1.9 81
2018-10-10 03:00:00 15.1 13 Sudeste -- -- -- 1005.5 -1.2 81
2018-10-10 02:00:00 14.4 12 Este 18 Este 0 1005.7 -1.3 83
2018-10-10 01:00:00 13.9 15 Sudeste 24 Sudeste 0 1006.6 -0.4 84
2018-10-10 00:00:00 13.3 13 Este 18 Sudeste 0 1006.7 -0.4 85
2018-10-09 23:00:00 15.3 15 Este 26 Este 0 1007 0.2 75
2018-10-09 22:00:00 14.8 10 Este 15 Este 0 1007 0.4 80
2018-10-09 21:00:00 17.2 8 Este 18 Este 0 1007.1 0.3 64
2018-10-09 20:00:00 19.1 11 Sudeste 22 Sudeste 0 1006.8 -0.1 54
2018-10-09 19:00:00 21.7 13 Sudeste 32 Sudeste 0 1006.6 -0.8 45
2018-10-09 18:00:00 22.8 18 Sur 35 Sudeste 0 1006.8 -1.5 42
2018-10-09 17:00:00 23.9 13 Sur 26 Sur 0 1006.9 -2.2 44
2018-10-09 16:00:00 23 11 Este 22 Sudeste 0 1007.4 -2.5 49
2018-10-09 15:00:00 21.4 9 Este 26 Este 0 1008.3 -2.3 54
2018-10-09 14:00:00 20 6 Nordeste 21 Este 0 1009.1 -1.7 57
2018-10-09 13:00:00 18.9 6 Este 21 Este -- 1009.9 -1.1 69
2018-10-09 12:00:00 16.9 6 Este 13 Este 0 1010.6 -0.3 77
2018-10-09 11:00:00 14.8 9 Sudeste 15 Sudeste 0 1010.8 0.1 89
2018-10-09 10:00:00 12.2 10 Sudeste 21 Sudeste 0 1011 0 100
2018-10-09 09:00:00 11.1 4 Sudeste 8 Sur 0 1010.9 -0.5 100
2018-10-09 08:00:00 10.9 4 Este 13 Este 0 1010.7 -1.3 100
2018-10-09 07:00:00 11.3 7 Este 21 Este 0 1011 -1.5 100
2018-10-09 06:00:00 11.4 6 Sudeste 13 Este 0 1011.4 -1.9 100
2018-10-09 05:00:00 11.5 3 Sudeste 8 Sudeste 0 1012 -1.6 100
2018-10-09 04:00:00 12.2 5 Este 8 Este 0 1012.5 -1.5 100
2018-10-09 03:00:00 13.2 4 Sudeste -- -- -- 1013.3 -1.4 100
2018-10-09 02:00:00 13.3 7 Sudeste 9 Sudeste 0 1013.6 -1.5 100
2018-10-09 01:00:00 13.6 6 Este -- -- 0 1014 -0.9 100
2018-10-09 00:00:00 13.9 0 Calma 11 Nordeste 0 1014.7 -0.5 100
2018-10-08 23:00:00 14 5 Este 9 Nordeste 0 1015.1 -0.2 100
2018-10-08 22:00:00 13.8 4 Sudeste 8 Sudeste 0.1 1014.9 -0.3 100
2018-10-08 21:00:00 14.3 0 Calma 5 Oeste 0 1015.2 0.1 99
2018-10-08 20:00:00 14.4 3 Oeste 17 Nordeste 0 1015.3 0.2 98
2018-10-08 19:00:00 15.2 8 Este 22 Nordeste 0 1015.2 -0.1 90
2018-10-08 18:00:00 15.6 7 Nordeste 21 Nordeste 0 1015.1 -0.6 88
2018-10-08 17:00:00 16.3 9 Norte 26 Norte 0 1015.1 -0.9 82
2018-10-08 16:00:00 17.8 17 Norte 26 Norte 0 1015.3 -1.3 77
2018-10-08 15:00:00 17.1 15 Noroeste 24 Noroeste 0 1015.7 -0.9 87
2018-10-08 14:00:00 17.4 10 Noroeste 21 Noroeste 0 1016 -0.7 90
2018-10-08 13:00:00 16.6 12 Norte 17 Noroeste 0 1016.6 0 94
2018-10-08 12:00:00 15.4 13 Noroeste 18 Noroeste 0 1016.6 0.4 100
2018-10-08 11:00:00 15.5 8 Oeste 13 Oeste 0 1016.7 0.7 100
2018-10-08 10:00:00 14.2 8 Oeste 11 Oeste 0.1 1016.6 0.8 100
2018-10-08 09:00:00 13.5 5 Oeste 13 Noroeste 0 1016.2 0.4 100
2018-10-08 08:00:00 13.4 4 Oeste 13 Oeste 0.6 1016 0.2 100
2018-10-08 07:00:00 13.4 5 Oeste 22 Norte 0 1015.8 -0.1 100
2018-10-08 06:00:00 13.5 10 Noroeste 28 Noroeste 1.9 1015.8 -0.4 100
2018-10-08 05:00:00 13.5 16 Noroeste 28 Noroeste 0.7 1015.8 -1 100
2018-10-08 04:00:00 13.8 16 Noroeste 24 Noroeste 0.6 1015.9 -1 100
2018-10-08 03:00:00 13.9 13 Noroeste 28 Noroeste 1.9 1016.2 -1.1 100
2018-10-08 02:00:00 14.2 17 Noroeste 35 Norte 1.3 1016.8 -0.8 100
2018-10-08 01:00:00 14.7 21 Noroeste 33 Noroeste 0.1 1016.9 -0.7 99
2018-10-08 00:00:00 14.7 22 Noroeste 32 Noroeste 0.2 1017.3 -0.4 97
2018-10-07 23:00:00 14 14 Noroeste 26 Noroeste 2.3 1017.6 -0.1 99
2018-10-07 22:00:00 13.4 19 Noroeste 32 Noroeste 3.1 1017.6 0 99
2018-10-07 21:00:00 13.3 17 Noroeste 39 Noroeste 0.9 1017.7 0.3 99
2018-10-07 20:00:00 12.5 21 Oeste 46 Noroeste 3.5 1017.7 0.4 98
2018-10-07 19:00:00 12.1 30 Noroeste 46 Noroeste 2.9 1017.6 0.7 96
2018-10-07 18:00:00 12.5 16 Noroeste 33 Noroeste 5.1 1017.4 0.5 97
2018-10-07 17:00:00 13.9 16 Oeste 45 Noroeste 1.3 1017.3 0.1 86
2018-10-07 16:00:00 14.6 21 Noroeste 35 Noroeste 0 1016.9 -0.9 80
2018-10-07 15:00:00 14 13 Oeste 26 Noroeste 0 1016.9 -0.5 84
2018-10-07 14:00:00 14.7 17 Oeste 33 Oeste 0 1017.2 -0.2 81
2018-10-07 13:00:00 13.8 26 Norte 50 Noroeste 0.8 1017.8 0.7 87
2018-10-07 12:00:00 13.7 22 Noroeste 45 Noroeste 1 1017.4 1 82
2018-10-07 11:00:00 14 13 Oeste 28 Oeste 0 1017.4 1.3 84
2018-10-07 10:00:00 12.8 8 Oeste 13 Oeste 0.2 1017.1 1.1 93
2018-10-07 09:00:00 11.7 13 Noroeste 21 Noroeste 2 1016.4 0.4 96
2018-10-07 08:00:00 11.5 5 Oeste 18 Noroeste 1 1016.1 0.3 95
2018-10-07 07:00:00 11.7 12 Oeste 18 Noroeste 1.7 1016 -0.2 95
2018-10-07 06:00:00 11.7 7 Oeste 17 Oeste 2.9 1016 -0.3 96
2018-10-07 05:00:00 11.7 7 Oeste 17 Oeste 2 1015.8 -0.3 95
2018-10-07 04:00:00 12.1 13 Oeste 32 Noroeste 1.5 1016.2 0.3 90
2018-10-07 03:00:00 13 10 Oeste 45 Oeste 0.2 1016.3 0.7 80
2018-10-07 02:00:00 13.8 12 Oeste 46 Noroeste 0 1016.1 0.5 74
2018-10-07 01:00:00 14.6 29 Noroeste 45 Oeste 0 1015.9 0.8 71
2018-10-07 00:00:00 14.7 16 Oeste 35 Oeste 0 1015.6 1.4 63
2018-10-06 23:00:00 14.7 14 Noroeste 41 Oeste 0 1015.6 2.1 73
2018-10-06 22:00:00 15.4 21 Oeste 39 Sudoeste 0 1015.1 1.9 67
2018-10-06 21:00:00 15.5 23 Oeste 46 Noroeste 0 1014.2 1.1 68
2018-10-06 20:00:00 15.4 17 Oeste 35 Noroeste 0.2 1013.5 1.4 70
2018-10-06 19:00:00 14.7 22 Noroeste 52 Noroeste 0 1013.2 2.3 76
2018-10-06 18:00:00 15.6 30 Noroeste 61 Norte 0.5 1013.1 3.1 69
2018-10-06 17:00:00 14.8 42 Noroeste 67 Noroeste 0 1012.1 1.7 89
2018-10-06 16:00:00 18.2 46 Noroeste 68 Noroeste 0 1010.9 0.4 71
2018-10-06 15:00:00 21.8 26 Noroeste 42 Noroeste 0 1010 -0.9 50
2018-10-06 14:00:00 20.8 24 Noroeste 37 Noroeste 0 1010.4 -0.5 55
2018-10-06 13:00:00 21 21 Noroeste 37 Noroeste 0 1010.5 -0.2 54
2018-10-06 12:00:00 20.2 21 Noroeste 33 Noroeste 0 1010.9 0.5 57
2018-10-06 11:00:00 17 3 Sudeste 9 Sudeste 0 1010.9 1.2 77
2018-10-06 10:00:00 12.9 4 Sudeste 8 Este 0 1010.7 1.2 91
2018-10-06 09:00:00 10 4 Sur 15 Este 0 1010.4 1.1 96
2018-10-06 08:00:00 10 7 Este 13 Este 0 1009.7 0.4 97
2018-10-06 07:00:00 10.2 6 Nordeste 9 Este 0 1009.5 -0.5 97
2018-10-06 06:00:00 10.7 0 Calma 11 Sudeste 0 1009.3 -1.3 97
2018-10-06 05:00:00 10.6 6 Este 11 Sudeste 0 1009.3 -1.2 95
2018-10-06 04:00:00 11.2 5 Sudeste 9 Este 0 1010 -0.9 93
2018-10-06 03:00:00 11.9 0 Calma 5 Este 0 1010.6 -0.4 92
2018-10-06 02:00:00 12.3 4 Sudeste 11 Este 0 1010.5 -0.5 91
2018-10-06 01:00:00 12.9 8 Este 9 Este 0 1010.9 0.2 89
2018-10-06 00:00:00 13.6 9 Este 9 Este 0 1011 0.4 89
2018-10-05 23:00:00 14.8 5 Sudeste 13 Este 0 1011 0.8 83
2018-10-05 22:00:00 16 6 Este 8 Este 0 1010.7 1 80
2018-10-05 21:00:00 17.6 2 Sudeste 11 Oeste 0 1010.6 0.8 70
2018-10-05 20:00:00 19.3 8 Oeste 15 Noroeste 0 1010.2 0.5 62
2018-10-05 19:00:00 22.2 10 Oeste 18 Noroeste 0 1009.7 -0.1 52
2018-10-05 18:00:00 23.6 12 Noroeste 28 Noroeste 0 1009.8 0.4 45
2018-10-05 17:00:00 23.9 15 Oeste 30 Noroeste 0 1009.7 -0.2 46
2018-10-05 16:00:00 24 22 Oeste 30 Noroeste 0 1009.8 -0.8 47
2018-10-05 15:00:00 27.9 18 Oeste 24 Noroeste 0 1009.4 -1.8 41
2018-10-05 14:00:00 28.8 11 Sudoeste 26 Sudoeste 0 1009.9 -1.7 33
2018-10-05 13:00:00 27.3 12 Sur 26 Sur 0 1010.6 -1.1 38
2018-10-05 12:00:00 25.3 11 Sur 22 Sur 0 1011.2 -0.2 44
2018-10-05 11:00:00 23.2 10 Sur 21 Sur 0 1011.6 0.5 52
2018-10-05 10:00:00 19.6 0 Calma 17 Sudoeste 0 1011.7 0.8 67
2018-10-05 09:00:00 15.8 0 Calma 8 Sur 0 1011.4 0.5 74
2018-10-05 08:00:00 12.5 2 Sur 11 Este 0 1011.1 0 85
2018-10-05 07:00:00 12.3 5 Sudeste 11 Sudeste 0 1010.9 -0.5 86
2018-10-05 06:00:00 11.9 7 Este 11 Este 0 1010.9 -1.3 92
2018-10-05 05:00:00 12.1 5 Sudeste 11 Este 0 1011.1 -1.4 95
2018-10-05 04:00:00 11.9 3 Sudoeste 13 Este 0 1011.4 -1.4 97
2018-10-05 03:00:00 12.6 4 Este 11 Este 0 1012.2 -1.1 97
2018-10-05 02:00:00 12.9 6 Sudeste 11 Sudeste 0 1012.5 -1 97
2018-10-05 01:00:00 13.6 6 Este 9 Este 0 1012.8 -0.6 96
2018-10-05 00:00:00 14 6 Este 13 Este 0 1013.3 0 95
2018-10-04 23:00:00 14.8 7 Este 13 Este 0 1013.5 0.5 90
2018-10-04 22:00:00 15.9 7 Este 9 Este 0 1013.4 0.7 87
2018-10-04 21:00:00 17.7 2 Oeste 13 Oeste 0 1013.3 0.5 80
2018-10-04 20:00:00 19.3 8 Oeste 15 Noroeste 0 1013 0 72
2018-10-04 19:00:00 21.6 12 Noroeste 21 Noroeste 0 1012.7 -0.6 62
2018-10-04 18:00:00 23.3 14 Oeste 24 Noroeste 0 1012.8 -1.4 56
2018-10-04 17:00:00 24.6 16 Oeste 24 Noroeste 0 1013 -2.2 54
2018-10-04 16:00:00 25.9 6 Oeste 17 Noroeste 0 1013.3 -3 45
2018-10-04 15:00:00 24.5 6 Este 18 Este 0 1014.2 -3 45
2018-10-04 14:00:00 23.5 13 Este 22 Sudeste 0 1015.2 -2.8 47
2018-10-04 13:00:00 21.9 10 Sudeste 18 Este 0 1016.3 -1.8 58
2018-10-04 12:00:00 19.3 5 Sur 13 Sur 0 1017.2 -0.9 66
2018-10-04 11:00:00 16 8 Este 17 Este 0 1018 -0.2 77
2018-10-04 10:00:00 12.7 7 Sudeste 13 Este 0 1018.1 -0.2 88
2018-10-04 09:00:00 10.1 10 Este 13 Este 0 1018.1 -0.3 95
2018-10-04 08:00:00 9.6 9 Este 15 Este 0 1018.2 -0.7 96
2018-10-04 07:00:00 10.2 6 Este 11 Este 0 1018.3 -1.3 95
2018-10-04 06:00:00 10.7 8 Este 11 Sudeste 0 1018.4 -1.9 93
2018-10-04 05:00:00 11.8 5 Sudeste 8 Este 0 1018.9 -1.9 90
2018-10-04 04:00:00 12.6 2 Sudeste 9 Sudeste 0 1019.6 -1.6 87
2018-10-04 03:00:00 12.8 7 Sudeste 9 Sudeste 0 1020.3 -1.2 88
2018-10-04 02:00:00 12.2 4 Este 13 Este 0 1020.8 -0.7 89
2018-10-04 01:00:00 10.9 10 Este 13 Este 0 1021.2 -0.3 91
2018-10-04 00:00:00 11.6 3 Sudeste 13 Este 0 1021.5 -0.1 88
2018-10-03 23:00:00 12.5 4 Este 9 Este 0 1021.5 0.2 85
2018-10-03 22:00:00 13.6 6 Sudeste 17 Nordeste 0 1021.5 0.4 79
2018-10-03 21:00:00 14.8 3 Sur 13 Este 0 1021.6 0.9 76
2018-10-03 20:00:00 17.2 9 Nordeste 18 Este 0 1021.3 0.5 63
2018-10-03 19:00:00 19.1 11 Nordeste 35 Norte 0 1021.1 -0.3 56
2018-10-03 18:00:00 21.5 15 Oeste 24 Noroeste 0 1020.7 -1.7 52
2018-10-03 17:00:00 22.8 11 Nordeste 32 Nordeste 0 1020.8 -2.4 48
2018-10-03 16:00:00 22.8 13 Nordeste 22 Este 0 1021.4 -2.3 43
2018-10-03 15:00:00 22.7 12 Este 24 Nordeste 0 1022.4 -1.7 43
2018-10-03 14:00:00 21.6 11 Nordeste 24 Nordeste 0 1023.2 -1.4 43
2018-10-03 13:00:00 20.2 5 Sur 15 Sur 0 1023.7 -0.9 46
2018-10-03 12:00:00 17.8 6 Sur 11 Sudeste 0 1024.1 -0.5 58
2018-10-03 11:00:00 14.5 4 Este 11 Sudeste 0 1024.6 0.4 71
2018-10-03 10:00:00 11.5 7 Sudeste 11 Sudeste 0 1024.6 0.2 83
2018-10-03 09:00:00 8.8 5 Este 15 Este 0 1024.6 0.2 91
2018-10-03 08:00:00 8.1 7 Este 15 Este 0 1024.2 -0.3 93
2018-10-03 07:00:00 8.3 8 Este 13 Este 0 1024.4 -0.3 93
2018-10-03 06:00:00 8.1 9 Este 11 Este 0 1024.4 -0.5 92
2018-10-03 05:00:00 8.3 8 Este 11 Este 0 1024.5 -0.8 91
2018-10-03 04:00:00 -- 8 Este 11 Este 0 1024.7 -0.8 --
2018-10-03 03:00:00 8.7 9 Este 13 Sudeste 0 1024.9 -0.6 90
2018-10-03 02:00:00 9 10 Este 13 Este 0 1025.3 -0.2 88
2018-10-03 01:00:00 9.3 8 Este 11 Este 0 1025.5 0.4 87
2018-10-03 00:00:00 9.8 5 Este 11 Este 0 1025.5 0.9 84
2018-10-02 23:00:00 10.9 5 Sudeste 11 Este 0 1025.5 1.3 80
2018-10-02 22:00:00 11.6 8 Este 13 Este 0 1025.1 1.1 76
2018-10-02 21:00:00 13.4 4 Este 15 Este 0 1024.6 0.6 67
2018-10-02 20:00:00 15.4 8 Este 22 Este 0 1024.2 0.2 56
2018-10-02 19:00:00 17.2 15 Nordeste 28 Nordeste 0 1024 0 47
2018-10-02 18:00:00 18.3 15 Nordeste 26 Nordeste 0 1024 -0.2 44
2018-10-02 17:00:00 18.8 16 Nordeste 30 Nordeste 0 1024 -0.7 41
2018-10-02 16:00:00 19.3 18 Nordeste 32 Nordeste 0 1024 -1.1 42
2018-10-02 15:00:00 19.2 13 Nordeste 26 Este 0 1024.2 -1.2 43
2018-10-02 14:00:00 19.2 17 Nordeste 28 Nordeste 0 1024.7 -0.6 46
2018-10-02 13:00:00 18.9 9 Este 21 Este 0 1025.1 0 50
2018-10-02 12:00:00 17.1 3 Norte 11 Norte 0 1025.4 0.7 58
2018-10-02 11:00:00 14.7 5 Este 11 Este 0 1025.3 1.1 67
2018-10-02 10:00:00 11.9 8 Este 15 Este 0 1025.1 1.3 81
2018-10-02 09:00:00 9 9 Este 15 Este 0 1024.7 0.7 92
2018-10-02 08:00:00 8.7 10 Este 15 Este 0 1024.2 0.1 93
2018-10-02 07:00:00 7.8 7 Este 11 Este 0 1023.8 -0.6 95
2018-10-02 06:00:00 8 6 Este 9 Este 0 1024 -0.5 94
2018-10-02 05:00:00 8.7 5 Este 11 Sudeste 0 1024.1 -0.3 92
2018-10-02 04:00:00 9.5 8 Sudeste 9 Este 0 1024.4 -0.4 87
2018-10-02 03:00:00 10.8 5 Este 9 Sudeste 0 1024.5 -0.2 86
2018-10-02 02:00:00 11.9 6 Sudeste 9 Sudeste 0 1024.4 -0.3 79
2018-10-02 01:00:00 13.4 6 Nordeste 9 Nordeste 0 1024.8 0.4 69
2018-10-02 00:00:00 15 7 Nordeste 13 Norte 0 1024.7 0.6 63
2018-10-01 23:00:00 15.2 5 Nordeste 13 Nordeste 0 1024.7 0.9 66
2018-10-01 22:00:00 15.3 6 Este 13 Nordeste 0 1024.4 1 66
2018-10-01 21:00:00 15.5 6 Nordeste 32 Nordeste 0 1024.1 0.8 66
2018-10-01 20:00:00 16.2 12 Nordeste 24 Nordeste 0 1023.8 0.5 63
2018-10-01 19:00:00 16.8 15 Nordeste 28 Este 0 1023.4 0.1 62
2018-10-01 18:00:00 17.6 12 Nordeste 33 Nordeste 0 1023.3 0.2 60
2018-10-01 17:00:00 18.1 21 Nordeste 33 Nordeste 0 1023.3 0 53
2018-10-01 16:00:00 17.2 22 Nordeste 35 Norte 0 1023.3 -0.1 68
2018-10-01 15:00:00 18.7 17 Norte 35 Norte 0 1023.1 -0.1 56
2018-10-01 14:00:00 18.6 18 Norte 33 Norte 0 1023.3 0.2 57
2018-10-01 13:00:00 18.2 14 Nordeste 35 Nordeste 0 1023.4 1.2 62
2018-10-01 12:00:00 18.3 11 Norte 26 Norte 0 1023.2 1.5 62
2018-10-01 11:00:00 17.9 17 Nordeste 30 Nordeste 0 1023.1 2 65
2018-10-01 10:00:00 17.4 7 Noroeste 11 Noroeste 0 1022.2 1.5 66
2018-10-01 09:00:00 16.8 6 Norte 15 Noroeste 0 1021.7 1.2 64
2018-10-01 08:00:00 16.6 9 Noroeste 15 Noroeste 0 1021.1 1 69
2018-10-01 07:00:00 15.9 3 Oeste 5 Oeste 0 1020.7 0.5 76
2018-10-01 06:00:00 15.9 2 Oeste 21 Nordeste 0 1020.5 0.4 77
2018-10-01 05:00:00 16.8 8 Norte 18 Norte 0 1020.1 0.3 68
2018-10-01 04:00:00 17 10 Norte 17 Norte 0 1020.2 0.5 70
2018-10-01 03:00:00 15.2 0 Calma 9 Noroeste 0 1020.1 0.6 88
2018-10-01 02:00:00 15.3 3 Sudeste 9 Noroeste 0 1019.8 0.4 88
2018-10-01 01:00:00 16.7 6 Noroeste 15 Noroeste 0 1019.7 0.9 73
2018-10-01 00:00:00 17 9 Noroeste 15 Noroeste 0 1019.5 1.1 74
2018-09-30 23:00:00 17 5 Noroeste 11 Noroeste 0 1019.4 1.6 81
2018-09-30 22:00:00 17.5 6 Noroeste 15 Noroeste 0 1018.8 1.4 86
2018-09-30 21:00:00 17.2 9 Noroeste 21 Norte 0 1018.4 1.6 86
2018-09-30 20:00:00 17.9 13 Noroeste 22 Noroeste 0 1017.8 1.2 82
2018-09-30 19:00:00 19.7 17 Noroeste 28 Noroeste 0 1017.4 0.9 71
2018-09-30 18:00:00 21 16 Noroeste 24 Noroeste 0 1016.8 0.3 63
2018-09-30 17:00:00 21.3 12 Noroeste 26 Norte 0 1016.6 -0.2 57
2018-09-30 16:00:00 22.1 13 Noroeste 26 Noroeste 0 1016.5 -0.2 54
2018-09-30 15:00:00 21.4 14 Norte 26 Norte 0 1016.5 -0.8 54
2018-09-30 14:00:00 21.3 15 Norte 26 Oeste 0 1016.8 -0.3 51
2018-09-30 13:00:00 20.9 7 Noroeste 22 Noroeste 0 1016.7 0.3 55
2018-09-30 12:00:00 18.9 10 Noroeste 21 Noroeste 0 1017.3 1.4 67
2018-09-30 11:00:00 18.2 4 Este 13 Sur 0 1017.1 1.7 74
2018-09-30 10:00:00 16 5 Sudeste 9 Sudeste 0 1016.4 1.4 86
2018-09-30 09:00:00 14.2 7 Este 13 Sudeste 0 1015.9 1 94
2018-09-30 08:00:00 15.1 5 Sur 9 Sur 0 1015.4 0.7 90
2018-09-30 07:00:00 15.1 0 Calma 8 Oeste 0 1015 0.2 91
2018-09-30 06:00:00 15 0 Calma 5 Noroeste 0 1014.9 0.2 95
2018-09-30 05:00:00 14.9 2 Noroeste 5 Noroeste 0 1014.7 -0.1 95
2018-09-30 04:00:00 14.6 3 Oeste -- -- 0 1014.8 -0.1 98
2018-09-30 03:00:00 14.9 3 Oeste 5 Noroeste 0 1014.7 -0.2 95
2018-09-30 02:00:00 15.4 4 Sudeste 8 Este 0 1014.8 0.1 95
2018-09-30 01:00:00 15.2 0 Calma 8 Este 0 1014.9 0.4 96
2018-09-30 00:00:00 14.8 -- -- -- -- 0 1014.9 0.6 96
2018-09-29 23:00:00 15 4 Este 8 Este 0 1014.7 0.7 94
2018-09-29 22:00:00 16 0 Calma 8 Oeste 0 1014.5 1 92
2018-09-29 21:00:00 16.7 8 Noroeste 13 Noroeste 0 1014.3 0.9 90
2018-09-29 20:00:00 18.2 10 Noroeste 17 Noroeste 0 1014 0.3 83
2018-09-29 19:00:00 20.9 13 Noroeste 22 Noroeste 0 1013.5 -0.5 70
2018-09-29 18:00:00 22.9 16 Oeste 26 Noroeste 0 1013.4 -0.9 63
2018-09-29 17:00:00 23.8 13 Norte 21 Noroeste 0 1013.7 -1.3 61
2018-09-29 16:00:00 24.1 12 Norte 22 Norte 0 1014 -1.5 65
2018-09-29 15:00:00 23.3 13 Norte 22 Norte 0 1014.3 -1.7 68
2018-09-29 14:00:00 23.9 7 Este 15 Nordeste 0 1015 -1.5 62
2018-09-29 13:00:00 22.5 7 Norte 17 Nordeste 0 1015.5 -1 66
2018-09-29 12:00:00 21.4 4 Sudeste 13 Sudeste 0 1016 -0.4 72
2018-09-29 11:00:00 18.6 5 Sudeste 11 Este 0 1016.5 0.4 90
2018-09-29 10:00:00 16.4 5 Este 11 Este 0 1016.5 0.5 99
2018-09-29 09:00:00 14.9 5 Sudeste 9 Este 0 1016.4 0.5 100
2018-09-29 08:00:00 15 7 Sudeste 11 Este 0 1016.1 0.2 100
2018-09-29 07:00:00 15.2 5 Sudeste 8 Este 0 1016 -0.6 100
2018-09-29 06:00:00 15.4 5 Sudeste 9 Este 0 1015.9 -1.5 99
2018-09-29 05:00:00 16.2 6 Este 9 Sur 0 1015.9 -1.8 98
2018-09-29 04:00:00 17.1 2 Nordeste 8 Norte 0 1016.6 -1.1 94
2018-09-29 03:00:00 18.4 4 Sur 5 Sudoeste 0 1017.4 -0.2 90
2018-09-29 02:00:00 18.6 4 Noroeste 11 Norte 0 1017.7 0.1 89
2018-09-29 01:00:00 18.8 8 Norte 11 Norte 0 1017.7 0.2 92
2018-09-29 00:00:00 18.8 3 Oeste 8 Noroeste 0 1017.6 0.4 93
2018-09-28 23:00:00 18.6 5 Oeste 9 Oeste 0 1017.6 0.7 93
2018-09-28 22:00:00 18.6 4 Noroeste 11 Norte 0 1017.5 0.7 93
2018-09-28 21:00:00 19.4 9 Noroeste 13 Noroeste 0 1017.2 0.7 90
2018-09-28 20:00:00 20.2 12 Noroeste 21 Noroeste 0 1016.9 0.3 89
2018-09-28 19:00:00 21.3 13 Noroeste 24 Norte 0 1016.8 0 84
2018-09-28 18:00:00 23.6 13 Noroeste 24 Norte 0 1016.5 -1 72
2018-09-28 17:00:00 24.5 13 Noroeste 26 Noroeste 0 1016.6 -1.4 68
2018-09-28 16:00:00 25.2 16 Oeste 24 Oeste 0 1016.8 -1.7 64
2018-09-28 15:00:00 25 14 Oeste 26 Noroeste 0 1017.5 -1.4 63
2018-09-28 14:00:00 24.9 15 Noroeste 22 Oeste 0 1018 -1.1 63
2018-09-28 13:00:00 23.8 9 Noroeste 17 Noroeste 0 1018.5 -0.3 68
2018-09-28 12:00:00 22.3 6 Oeste 15 Oeste 0 1018.9 0.2 75
2018-09-28 11:00:00 20.1 3 Oeste 9 Noroeste 0 1019.1 0.7 85
2018-09-28 10:00:00 17.1 7 Este 13 Nordeste 0 1018.8 -- 99
2018-09-28 09:00:00 15.8 8 Este 13 Este 0 1018.7 0.3 100
2018-09-28 08:00:00 15.2 5 Sudeste 13 Este 0 1018.4 0 100
2018-09-28 07:00:00 -- -- -- 9 Este 0 -- -- --
2018-09-28 06:00:00 15.2 5 Sudeste 11 Este 0 1018.4 -1.2 98
2018-09-28 05:00:00 15.3 6 Sudeste 9 Este 0 1018.4 -1.2 98
2018-09-28 04:00:00 15.8 5 Este 5 Este 0 1018.9 -0.9 96
2018-09-28 03:00:00 16.5 0 Calma 8 Este 0 1019.6 -0.4 94
2018-09-28 02:00:00 16.7 0 Calma -- -- 0 1019.6 -0.3 94
2018-09-28 01:00:00 17.4 0 Calma 11 Este 0 1019.8 0 91
2018-09-28 00:00:00 18.4 5 Este 11 Sudeste 0 1020 0.4 87
2018-09-27 23:00:00 19.2 9 Este 13 Este 0 1019.9 0.2 84
2018-09-27 22:00:00 20.1 5 Sudeste 11 Este 0 1019.8 0 80
2018-09-27 21:00:00 21.4 2 Sur 13 Nordeste 0 1019.6 -0.5 74
2018-09-27 20:00:00 24.4 0 Calma 8 Sur 0 1019.7 -0.7 59
2018-09-27 19:00:00 25.9 6 Noroeste 15 Noroeste 0 1019.8 0 53
2018-09-27 18:00:00 26.3 11 Oeste 26 Noroeste 0 1020.1 0.2 52
2018-09-27 17:00:00 26.3 18 Oeste 35 Noroeste 0 1020.4 -0.2 52
2018-09-27 16:00:00 29.5 28 Noroeste 41 Noroeste 0 1019.8 -1.3 43
2018-09-27 15:00:00 32.1 8 Este 17 Este 0 1019.9 -1.5 37
2018-09-27 14:00:00 30.8 9 Sur 26 Sur 0 1020.6 -1.1 40
2018-09-27 13:00:00 28.9 15 Sur 32 Sur 0 1021.1 -0.4 45
2018-09-27 12:00:00 27.2 18 Sur 30 Sur 0 1021.4 0.1 49
2018-09-27 11:00:00 25.9 6 Sudeste 22 Este 0 1021.7 0.7 51
2018-09-27 10:00:00 24.2 12 Sudeste 22 Sudeste 0 1021.5 0.6 56
2018-09-27 09:00:00 22.6 13 Este 28 Sudeste 0 1021.3 0.3 59
2018-09-27 08:00:00 22.6 13 Sudeste 26 Este 0 1021 0.1 57
2018-09-27 07:00:00 22.8 10 Sudeste 24 Este 0 1020.9 -0.3 55
2018-09-27 06:00:00 24 13 Sur 30 Sur 0 1021 -0.3 50
2018-09-27 05:00:00 22.8 17 Este 28 Este 0 1020.9 -0.3 55
2018-09-27 04:00:00 23.1 18 Este 24 Este 0 1021.2 -0.1 55
2018-09-27 03:00:00 23.3 18 Este 26 Este 0 1021.3 0.3 55
2018-09-27 02:00:00 23.6 16 Este 26 Este 0 1021.2 0.3 53
2018-09-27 01:00:00 24.4 15 Este 26 Este 0 1021.3 0.9 50
2018-09-27 00:00:00 24.6 14 Este 26 Este 0 1021 1.3 52
2018-09-26 23:00:00 25.2 17 Este 28 Sudeste 0 1020.9 1.5 51
2018-09-26 22:00:00 25.5 18 Sudeste 30 Sudeste 0 1020.4 1.5 50
2018-09-26 21:00:00 25.4 14 Sudeste 33 Este 0 1019.7 1.1 52
2018-09-26 20:00:00 27.5 15 Este 28 Este 0 1019.4 0.6 46
2018-09-26 19:00:00 29.1 18 Sudeste 33 Sudeste 0 1018.9 -0.2 43
2018-09-26 18:00:00 30.3 22 Sudeste 39 Sudeste 0 1018.6 -0.8 40
2018-09-26 17:00:00 30.8 24 Sudeste 37 Sudeste 0 1018.8 -1.2 39
2018-09-26 16:00:00 30.6 22 Sudeste 39 Sudeste 0 1019.1 -1.5 40
2018-09-26 15:00:00 29.7 21 Sudeste 41 Sudeste 0 1019.4 -1.4 42
2018-09-26 14:00:00 28.6 26 Sudeste 37 Sudeste 0 1020 -1 45
2018-09-26 13:00:00 26.9 19 Sudeste 45 Sur 0 1020.6 -0.4 50
2018-09-26 12:00:00 25.2 22 Sur 41 Sur 0 1020.8 -0.1 55
2018-09-26 11:00:00 21.7 3 Sudoeste 9 Sudeste 0 1021 0.3 68
2018-09-26 10:00:00 14 0 Calma 9 Este 0 1021 0.2 88
2018-09-26 09:00:00 11.2 4 Este 18 Este 0 1020.9 -0.3 95
2018-09-26 08:00:00 9.8 6 Sudeste 24 Nordeste 0 1020.7 -1 98
2018-09-26 07:00:00 9.8 10 Sudeste 15 Sudeste 0 1020.8 -1.6 99
2018-09-26 06:00:00 9.5 7 Este 11 Este 0 1021.2 -1.6 99
2018-09-26 05:00:00 9.7 7 Este 9 Este 0 1021.7 -1.6 98
2018-09-26 04:00:00 9.9 5 Este 11 Este 0 1022.4 -0.9 99
2018-09-26 03:00:00 10.4 5 Sudeste 9 Sudeste 0 1022.8 -0.8 97
2018-09-26 02:00:00 10.4 4 Este 11 Este 0 1023.3 -0.4 97
2018-09-26 01:00:00 10.7 6 Este 13 Este 0 1023.3 -0.1 97
2018-09-26 00:00:00 11.1 5 Sudeste 11 Este 0 1023.6 0.6 94
2018-09-25 23:00:00 11.9 6 Sudeste 9 Este 0 1023.7 0.9 91
2018-09-25 22:00:00 12.5 5 Sur 8 Nordeste 0 1023.4 1 89
2018-09-25 21:00:00 14.1 4 Este 11 Nordeste 0 1023 0.4 80
2018-09-25 20:00:00 16 6 Nordeste 17 Nordeste 0 1022.8 -0.1 70
2018-09-25 19:00:00 18.3 10 Noroeste 24 Norte 0 1022.4 -0.5 59
2018-09-25 18:00:00 18.2 10 Norte 22 Norte 0 1022.6 -0.8 59
2018-09-25 17:00:00 18.7 9 Norte 28 Norte 0 1022.9 -1 58
2018-09-25 16:00:00 19.7 13 Norte 26 Norte 0 1022.9 -1.5 56
2018-09-25 15:00:00 19.5 10 Norte 22 Noroeste 0 1023.4 -1.4 57
2018-09-25 14:00:00 18.3 15 Noroeste 24 Norte 0 1023.9 -1.2 62
2018-09-25 13:00:00 19.5 8 Sudeste 15 Este 0 1024.4 -0.4 54
2018-09-25 12:00:00 17.8 3 Norte 9 Norte 0 1024.8 0 67
2018-09-25 11:00:00 14.4 4 Este 11 Este 0 1025.1 0.2 83
2018-09-25 10:00:00 11.7 8 Este 13 Este 0 1024.8 0.2 93
2018-09-25 09:00:00 9.7 9 Este 17 Este 0 1024.8 -0.1 99
2018-09-25 08:00:00 8.6 7 Este 11 Sudeste 0 1024.9 -0.2 100
2018-09-25 07:00:00 9.1 6 Este 11 Sudeste 0 1024.6 -0.8 100
2018-09-25 06:00:00 9.3 7 Este 9 Este 0 1024.9 -0.8 99
2018-09-25 05:00:00 9.4 5 Este 9 Este 0 1025.1 -0.6 99
2018-09-25 04:00:00 9.6 8 Este 11 Este 0 1025.4 -0.7 98
2018-09-25 03:00:00 9.9 8 Este 13 Este 0 1025.7 -0.9 98
2018-09-25 02:00:00 10 10 Este 13 Este 0 1025.7 -0.9 98
2018-09-25 01:00:00 10.2 8 Este 9 Este 0 1026.1 -0.3 97
2018-09-25 00:00:00 10.9 8 Este 11 Este 0 1026.6 0.2 95
2018-09-24 23:00:00 11.5 7 Este 13 Este 0 1026.6 0.4 93
2018-09-24 22:00:00 12.1 5 Sudeste 8 Sudeste 0 1026.4 0.2 90
2018-09-24 21:00:00 13.7 4 Oeste 13 Norte 0 1026.4 0.4 81
2018-09-24 20:00:00 15.2 8 Norte 21 Norte 0 1026.2 0.1 69
2018-09-24 19:00:00 16.6 14 Norte 24 Norte 0 1026.2 -0.1 63
2018-09-24 18:00:00 17.1 14 Norte 24 Nordeste 0 1026 -0.5 64
2018-09-24 17:00:00 18 14 Norte 24 Nordeste 0 1026.1 -0.8 62
2018-09-24 16:00:00 18.2 14 Norte 22 Norte 0 1026.3 -0.9 65
2018-09-24 15:00:00 18.4 14 Norte 28 Nordeste 0 1026.5 -0.7 71
2018-09-24 14:00:00 18 17 Nordeste 32 Este 0 1026.9 -0.3 75
2018-09-24 13:00:00 17.9 15 Nordeste 28 Nordeste 0 1027.2 0.5 79
2018-09-24 12:00:00 18 8 Nordeste 17 Nordeste 0 1027.2 1.2 88
2018-09-24 11:00:00 16.3 5 Oeste 11 Oeste 0 1027.2 1.9 100
2018-09-24 10:00:00 15.8 5 Noroeste 11 Noroeste 0.5 1026.7 1.9 100
2018-09-24 09:00:00 15.9 6 Oeste 13 Noroeste 0 1026 1.6 100
2018-09-24 08:00:00 16.3 4 Noroeste 15 Norte 0 1025.3 1.3 97
2018-09-24 07:00:00 16.7 7 Oeste 24 Nordeste 0.2 1024.8 1 100
2018-09-24 06:00:00 17.3 14 Nordeste 28 Nordeste 0 1024.4 0.5 97
2018-09-24 05:00:00 17.9 16 Nordeste 26 Nordeste 0.4 1024 0.8 97
2018-09-24 04:00:00 18.1 8 Oeste 13 Oeste 0.3 1023.8 0.8 100
2018-09-24 03:00:00 18.5 6 Noroeste 32 Norte 0.5 1023.9 1 100
2018-09-24 02:00:00 19.5 12 Norte 28 Oeste 0.6 1023.2 0.3 100
2018-09-24 01:00:00 19.7 3 Oeste 8 Norte 2.6 1023 0.1 100
2018-09-24 00:00:00 19.5 5 Este 13 Este 1.5 1022.9 0.4 100
2018-09-23 23:00:00 20.1 8 Este 13 Este 0 1022.9 0.8 93
2018-09-23 22:00:00 20.3 7 Sudeste 9 Sudeste 0 1022.9 1.4 90
2018-09-23 21:00:00 20.6 4 Sudeste 13 Noroeste 0 1022.5 1.4 86
2018-09-23 20:00:00 20.7 10 Oeste 32 Noroeste 0 1022.1 1.3 85
2018-09-23 19:00:00 22.2 15 Noroeste 28 Norte 0 1021.5 0.7 77
2018-09-23 18:00:00 22.2 16 Noroeste 30 Noroeste 0 1021.1 1.1 78
2018-09-23 17:00:00 22.4 18 Noroeste 28 Noroeste 0 1020.8 1.2 81
2018-09-23 16:00:00 22 17 Noroeste 41 Norte 0 1020.8 1.3 82
2018-09-23 15:00:00 24.3 25 Noroeste 35 Noroeste 0 1020 0.3 70
2018-09-23 14:00:00 24.5 16 Noroeste 28 Noroeste 0 1019.6 -0.1 68
2018-09-23 13:00:00 24.4 19 Noroeste 28 Noroeste 0 1019.5 -0.1 69
2018-09-23 12:00:00 23.9 7 Oeste 15 Noroeste 0 1019.7 0.3 66
2018-09-23 11:00:00 21.6 7 Oeste 13 Oeste 0 1019.7 0.6 75
2018-09-23 10:00:00 19.7 6 Este 13 Este 0 1019.6 0.5 84
2018-09-23 09:00:00 16.9 0 Calma 11 Sudeste 0 1019.4 0.2 94
2018-09-23 08:00:00 15.8 8 Este 13 Este 0 1019.1 -0.3 98
2018-09-23 07:00:00 15.8 7 Este 13 Este 0 1019.1 -0.9 98
2018-09-23 06:00:00 15.9 7 Este 9 Este 0 1019.2 -1.4 98
2018-09-23 05:00:00 16 8 Este 9 Este 0 1019.4 -1.4 97
2018-09-23 04:00:00 16.4 5 Sudeste 8 Sudeste 0 1020 -0.8 96
2018-09-23 03:00:00 16.8 7 Este 9 Este 0 1020.6 -0.3 95
2018-09-23 02:00:00 17.2 4 Este 9 Este 0 1020.8 0 94
2018-09-23 01:00:00 17.6 7 Este 9 Este 0 1020.8 0.3 92
2018-09-23 00:00:00 18.4 5 Este 11 Este 0 1020.9 1.1 90
2018-09-22 23:00:00 19.2 5 Este 9 Este 0 1020.8 1.5 86
2018-09-22 22:00:00 20.1 0 Calma 5 Sur 0 1020.5 1.5 82
2018-09-22 21:00:00 21.2 5 Oeste 11 Oeste 0 1019.8 0.9 77
2018-09-22 20:00:00 23.5 9 Oeste 21 Noroeste 0 1019.3 0.5 65
2018-09-22 19:00:00 25.9 15 Noroeste 22 Norte 0 1019 0.4 54
2018-09-22 18:00:00 27.1 12 Noroeste 22 Oeste 0 1018.9 0.5 51
2018-09-22 17:00:00 27.8 18 Noroeste 32 Noroeste 0 1018.8 0.2 50
2018-09-22 16:00:00 29.6 21 Noroeste 30 Noroeste 0 1018.6 -0.1 42
2018-09-22 15:00:00 29.7 15 Norte 26 Norte 0 1018.4 -0.2 42
2018-09-22 14:00:00 29.2 9 Noroeste 18 Noroeste 0 1018.6 -0.2 44
2018-09-22 13:00:00 27.6 6 Noroeste 17 Oeste 0 1018.7 0.2 51
2018-09-22 12:00:00 25.3 4 Oeste 11 Este 0 1018.6 0.2 61
2018-09-22 11:00:00 23.2 6 Sudeste 11 Sudeste 0 1018.8 0.4 69
2018-09-22 10:00:00 20.2 5 Sudeste 9 Sudeste 0 1018.5 0.5 85
2018-09-22 09:00:00 17.9 7 Sudeste 11 Sudeste 0 1018.4 0 95
2018-09-22 08:00:00 16.7 4 Sur 13 Sur 0 1018.4 -0.4 100
2018-09-22 07:00:00 16.7 8 Sudeste 13 Sudeste 0 1018 -1.2 100
2018-09-22 06:00:00 17 7 Este 9 Sudeste 0 1018.4 -1.2 100
2018-09-22 05:00:00 17.7 6 Sudeste 9 Sudeste 0 1018.8 -1 99
2018-09-22 04:00:00 18.4 5 Este 9 Este 0 1019.2 -0.8 96
2018-09-22 03:00:00 19.3 8 Este 11 Este 0 1019.6 -0.6 94
2018-09-22 02:00:00 19.4 6 Este 13 Sudeste 0 1019.8 -0.1 93
2018-09-22 01:00:00 19.3 5 Este 8 Nordeste 0 1020 -0.2 93
2018-09-22 00:00:00 19.2 3 Oeste 8 Oeste 0 1020.2 0.7 94
2018-09-21 23:00:00 19.3 4 Sudeste 11 Este 0 1019.9 0.9 93
2018-09-21 22:00:00 19.4 8 Nordeste 13 Nordeste 0 1020.2 1.4 95
2018-09-21 21:00:00 19.5 0 Calma 8 Norte 0 1019.5 1.2 94
2018-09-21 20:00:00 19.6 2 Oeste 21 Norte 0.2 1019 0.8 94
2018-09-21 19:00:00 20.7 10 Norte 22 Norte 0 1018.8 1 85
2018-09-21 18:00:00 21.9 15 Noroeste 26 Noroeste 0 1018.3 0.9 78
2018-09-21 17:00:00 21.8 14 Noroeste 32 Noroeste 0 1018.2 0.8 79
2018-09-21 16:00:00 23.1 20 Noroeste 33 Norte 0 1017.8 0.5 71
2018-09-21 15:00:00 23.2 19 Noroeste 30 Noroeste 0 1017.4 0.2 69
2018-09-21 14:00:00 24 18 Noroeste 28 Noroeste 0 1017.4 0.8 60
2018-09-21 13:00:00 24.5 17 Noroeste 26 Noroeste 0 1017.3 1.1 54
2018-09-21 12:00:00 22.4 6 Sudeste 18 Este 0 1017.2 1.6 73
2018-09-21 11:00:00 20 10 Sudeste 17 Este 0 1016.6 1.8 87
2018-09-21 10:00:00 17.8 8 Sudeste 15 Este 0 1016.2 2.2 100
2018-09-21 09:00:00 17.3 10 Sudeste 13 Este 0 1015.6 1.8 100
2018-09-21 08:00:00 17.1 5 Sudeste 11 Sudeste 0 1014.8 1.2 100
2018-09-21 07:00:00 16.3 6 Sudeste 9 Sudeste 0 1014 0.6 100
2018-09-21 06:00:00 16.7 4 Sudeste 9 Este 0 1013.8 0.2 100
2018-09-21 05:00:00 16.8 5 Sudeste 9 Este 0 1013.6 0.1 100
2018-09-21 04:00:00 16.7 4 Sudeste 5 Sudeste 0 1013.4 -0.1 99
2018-09-21 03:00:00 17.2 3 Este 5 Este 0 1013.6 -0.1 100
2018-09-21 02:00:00 18.2 3 Este 5 Nordeste 0 1013.5 -0.4 98
2018-09-21 01:00:00 18.3 6 Este 9 Este 0 1013.5 -0.5 96
2018-09-21 00:00:00 19.1 4 Sudeste 5 Sudeste 0 1013.7 0.1 93
2018-09-20 23:00:00 20.2 4 Sudeste 9 Nordeste 0 1013.9 0.8 90
2018-09-20 22:00:00 21.4 4 Nordeste 9 Nordeste 0 1014 1.1 83
2018-09-20 21:00:00 21.3 5 Norte 13 Norte 0 1013.6 1.1 85
2018-09-20 20:00:00 21.6 10 Noroeste 26 Noroeste 0 1013.1 0.7 83
2018-09-20 19:00:00 23.3 13 Noroeste 24 Noroeste 0 1012.9 0.6 74
2018-09-20 18:00:00 24.5 17 Oeste 35 Oeste 0 1012.5 -0.1 64
2018-09-20 17:00:00 26.3 24 Noroeste 35 Noroeste 0 1012.4 -0.7 59
2018-09-20 16:00:00 27 18 Oeste 30 Oeste 0 1012.3 -1.6 60
2018-09-20 15:00:00 27.3 21 Oeste 30 Oeste 0 1012.6 -1.8 60
2018-09-20 14:00:00 28.4 19 Oeste 30 Noroeste 0 1013.1 -1.6 57
2018-09-20 13:00:00 28 6 Norte 17 Nordeste 0 1013.9 -1 59
2018-09-20 12:00:00 25.9 10 Este 22 Nordeste 0 1014.4 -0.9 66
2018-09-20 11:00:00 24.3 14 Este 32 Este 0 1014.7 -1 72
2018-09-20 10:00:00 22.2 16 Este 24 Este 0 1014.9 -1.1 83
2018-09-20 09:00:00 20.6 12 Sudeste 24 Este 0 1015.3 -1 93
2018-09-20 08:00:00 20.1 9 Sudeste 13 Este 0 1015.7 -1 95
2018-09-20 07:00:00 20.1 3 Este 5 Sudeste 0 1016 -1.2 96
2018-09-20 06:00:00 20.1 5 Este -- -- 0 1016.3 -1.3 96
2018-09-20 05:00:00 19.9 4 Sudeste 8 Este 0 1016.7 -1.3 97
2018-09-20 04:00:00 19.7 0 Calma 5 Este 0 1017.2 -1 98
2018-09-20 03:00:00 19.6 4 Este 9 Sudeste 0 1017.6 -0.8 97
2018-09-20 02:00:00 19.2 0 Calma 4 Nordeste 0 1018 -0.2 98
2018-09-20 01:00:00 19 0 Calma 4 Oeste 0 1018.2 0.3 98
2018-09-20 00:00:00 19.1 0 Calma 5 Nordeste 0 1018.4 0.9 96